createdAt,value
2023-12-09T00:04:04.005Z,23.37
2023-12-09T00:09:05.944Z,22.57
2023-12-09T00:14:07.671Z,21.77
2023-12-09T00:19:10.707Z,20.93
2023-12-09T00:24:12.643Z,22.40
2023-12-09T00:29:14.276Z,22.00
2023-12-09T00:34:16.167Z,23.00
2023-12-09T00:39:17.852Z,22.97
2023-12-09T00:44:22.134Z,22.60
2023-12-09T00:49:23.844Z,23.07
2023-12-09T00:54:26.635Z,22.07
2023-12-09T00:59:28.289Z,22.37
2023-12-09T01:04:29.953Z,23.00
2023-12-09T01:09:31.694Z,21.47
2023-12-09T01:14:33.356Z,23.80
2023-12-09T01:19:35.049Z,23.03
2023-12-09T01:24:36.708Z,21.77
2023-12-09T01:29:38.335Z,20.83
2023-12-09T01:34:41.821Z,22.47
2023-12-09T01:39:43.585Z,21.47
2023-12-09T01:44:45.842Z,22.10
2023-12-09T01:49:47.978Z,22.00
2023-12-09T01:54:49.722Z,22.53
2023-12-09T01:59:51.423Z,23.70
2023-12-09T02:04:54.136Z,23.17
2023-12-09T02:09:55.857Z,22.50
2023-12-09T02:15:03.636Z,23.00
2023-12-09T02:20:06.948Z,23.50
2023-12-09T02:25:08.939Z,23.63
2023-12-09T02:30:22.378Z,23.77
2023-12-09T02:35:25.484Z,23.10
2023-12-09T02:40:28.191Z,23.33
2023-12-09T02:45:29.837Z,22.90
2023-12-09T02:50:31.788Z,22.40
2023-12-09T02:55:33.371Z,23.13
2023-12-09T03:00:35.437Z,22.67
2023-12-09T03:05:37.171Z,25.03
2023-12-09T03:10:38.844Z,24.07
2023-12-09T03:15:40.496Z,24.17
2023-12-09T03:20:42.168Z,25.03
2023-12-09T03:25:43.790Z,24.87
2023-12-09T03:30:45.425Z,25.50
2023-12-09T03:35:47.050Z,25.87
2023-12-09T03:40:48.691Z,25.37
2023-12-09T03:45:50.361Z,26.30
2023-12-09T03:50:52.104Z,27.17
2023-12-09T03:55:53.765Z,28.23
2023-12-09T04:00:55.373Z,28.83
2023-12-09T04:05:57.109Z,27.70
2023-12-09T04:10:58.765Z,27.47
2023-12-09T04:16:01.237Z,26.63
2023-12-09T04:21:03.080Z,26.07
2023-12-09T04:26:05.879Z,23.27
2023-12-09T04:31:07.521Z,26.73
2023-12-09T04:36:09.483Z,25.40
2023-12-09T04:41:11.129Z,27.43
2023-12-09T04:46:12.751Z,26.27
2023-12-09T04:51:14.403Z,25.63
2023-12-09T04:56:16.208Z,26.17
2023-12-09T05:01:18.380Z,26.47
2023-12-09T05:06:21.376Z,25.20
2023-12-09T05:11:23.080Z,27.47
2023-12-09T05:16:24.695Z,26.47
2023-12-09T05:21:35.228Z,27.07
2023-12-09T05:26:38.093Z,26.67
2023-12-09T05:31:39.710Z,26.20
2023-12-09T05:36:41.628Z,26.50
2023-12-09T05:41:43.422Z,25.90
2023-12-09T05:46:45.117Z,25.73
2023-12-09T05:51:46.897Z,27.93
2023-12-09T05:56:50.033Z,26.20
2023-12-09T06:01:51.687Z,28.67
2023-12-09T06:06:53.325Z,27.83
2023-12-09T06:11:54.934Z,26.60
2023-12-09T06:16:56.636Z,27.40
2023-12-09T06:21:58.321Z,27.33
2023-12-09T06:27:00.041Z,26.10
2023-12-09T06:32:02.008Z,24.97
2023-12-09T06:37:03.834Z,26.27
2023-12-09T06:42:06.826Z,27.80
2023-12-09T06:47:11.058Z,26.63
2023-12-09T06:52:12.740Z,28.30
2023-12-09T06:57:14.366Z,28.67
2023-12-09T07:02:16.046Z,26.83
2023-12-09T07:07:21.941Z,25.53
2023-12-09T07:12:24.609Z,26.67
2023-12-09T07:17:26.877Z,25.47
2023-12-09T07:22:28.874Z,26.60
2023-12-09T07:27:30.679Z,26.67
2023-12-09T07:32:32.888Z,28.23
2023-12-09T07:37:34.797Z,26.50
2023-12-09T07:42:36.469Z,26.70
2023-12-09T07:47:38.194Z,26.43
2023-12-09T07:52:40.523Z,25.80
2023-12-09T07:57:42.172Z,26.07
2023-12-09T08:02:43.996Z,24.70
2023-12-09T08:07:45.642Z,27.67
2023-12-09T08:12:47.338Z,23.73
2023-12-09T08:17:49.036Z,27.10
2023-12-09T08:22:50.699Z,28.37
2023-12-09T08:27:52.355Z,27.23
2023-12-09T08:32:54.862Z,25.73
2023-12-09T08:37:56.516Z,25.33
2023-12-09T08:42:58.647Z,25.00
2023-12-09T08:48:00.480Z,25.57
2023-12-09T08:53:03.650Z,24.97
2023-12-09T08:58:05.256Z,29.03
2023-12-09T09:03:07.994Z,27.20
2023-12-09T09:08:09.821Z,28.30
2023-12-09T09:13:11.509Z,25.37
2023-12-09T09:18:13.254Z,28.53
2023-12-09T09:23:15.034Z,26.23
2023-12-09T09:28:16.714Z,25.87
2023-12-09T09:33:19.450Z,26.43
2023-12-09T09:38:21.233Z,26.27
2023-12-09T09:43:26.160Z,25.73
2023-12-09T09:48:29.980Z,30.00
2023-12-09T09:53:40.736Z,29.57
2023-12-09T09:58:43.364Z,26.47
2023-12-09T10:03:45.060Z,30.53
2023-12-09T10:08:50.167Z,25.23
2023-12-09T10:13:52.546Z,29.07
2023-12-09T10:18:55.072Z,29.93
2023-12-09T10:23:57.151Z,29.13
2023-12-09T10:28:58.881Z,28.37
2023-12-09T10:34:00.568Z,28.23
2023-12-09T10:39:06.340Z,29.17
2023-12-09T10:44:08.299Z,28.70
2023-12-09T10:49:10.116Z,28.10
2023-12-09T10:54:11.863Z,27.60
2023-12-09T10:59:14.499Z,27.35
2023-12-09T11:04:16.550Z,27.57
2023-12-09T11:09:20.168Z,26.45
2023-12-09T11:14:26.270Z,27.85
2023-12-09T11:19:28.174Z,29.67
2023-12-09T11:24:31.634Z,29.92
2023-12-09T11:29:34.670Z,27.93
2023-12-09T11:34:36.764Z,25.80
2023-12-09T11:39:39.693Z,25.63
2023-12-09T11:44:42.214Z,24.97
2023-12-09T11:49:44.306Z,25.27
2023-12-09T11:54:46.144Z,25.13
2023-12-09T11:59:47.801Z,26.10
2023-12-09T12:04:49.788Z,23.83
2023-12-09T12:09:51.780Z,20.52
2023-12-09T12:14:53.783Z,23.13
2023-12-09T12:19:56.679Z,20.05
2023-12-09T12:24:58.403Z,21.37
2023-12-09T12:30:00.307Z,21.73
2023-12-09T12:35:04.435Z,22.75
2023-12-09T12:40:06.585Z,19.77
2023-12-09T12:45:24.820Z,22.92
2023-12-09T12:50:27.901Z,20.90
2023-12-09T12:55:29.861Z,19.90
2023-12-09T13:00:31.728Z,19.70
2023-12-09T13:05:33.650Z,18.48
2023-12-09T13:10:35.315Z,18.35
2023-12-09T13:15:37.028Z,16.58
2023-12-09T13:20:39.177Z,14.85
2023-12-09T13:25:41.830Z,15.15
2023-12-09T13:30:43.597Z,16.58
2023-12-09T13:35:45.312Z,12.47
2023-12-09T13:40:47.422Z,13.65
2023-12-09T13:45:49.365Z,12.82
2023-12-09T13:50:51.256Z,10.43
2023-12-09T13:55:52.925Z,12.32
2023-12-09T14:00:54.949Z,11.73
2023-12-09T14:05:56.682Z,12.23
2023-12-09T14:10:58.781Z,12.32
2023-12-09T14:16:00.558Z,12.10
2023-12-09T14:21:02.328Z,16.90
2023-12-09T14:26:04.697Z,19.67
2023-12-09T14:31:07.241Z,21.15
2023-12-09T14:36:10.086Z,21.60
2023-12-09T14:41:11.926Z,20.95
2023-12-09T14:46:14.050Z,21.90
2023-12-09T14:51:15.886Z,20.83
2023-12-09T14:56:17.652Z,22.77
2023-12-09T15:01:19.904Z,21.63
2023-12-09T15:06:21.703Z,25.20
2023-12-09T15:11:25.574Z,23.83
2023-12-09T15:16:27.338Z,23.93
2023-12-09T15:21:29.194Z,24.67
2023-12-09T15:26:31.003Z,25.73
2023-12-09T15:31:32.735Z,25.90
2023-12-09T15:36:34.455Z,24.25
2023-12-09T15:41:36.182Z,22.87
2023-12-09T15:46:38.089Z,23.00
2023-12-09T15:51:39.942Z,23.07
2023-12-09T15:56:41.743Z,20.03
2023-12-09T16:01:43.455Z,17.83
2023-12-09T16:06:45.274Z,18.43
2023-12-09T16:11:47.038Z,13.90
2023-12-09T16:16:48.911Z,16.57
2023-12-09T16:21:50.715Z,16.03
2023-12-09T16:26:52.467Z,15.03
2023-12-09T16:31:54.172Z,14.13
2023-12-09T16:36:55.859Z,14.93
2023-12-09T16:41:57.574Z,14.23
2023-12-09T16:46:59.353Z,14.83
2023-12-09T16:52:00.965Z,11.48
2023-12-09T16:57:02.841Z,10.90
2023-12-09T17:02:04.581Z,11.87
2023-12-09T17:07:06.251Z,9.47
2023-12-09T17:12:08.564Z,11.13
2023-12-09T17:17:10.265Z,10.60
2023-12-09T17:22:11.921Z,12.70
2023-12-09T17:27:13.724Z,9.87
2023-12-09T17:32:15.418Z,9.67
2023-12-09T17:37:17.104Z,9.83
2023-12-09T17:42:18.963Z,11.07
2023-12-09T17:47:20.669Z,9.53
2023-12-09T17:52:23.806Z,10.15
2023-12-09T17:57:25.481Z,11.60
2023-12-09T18:02:27.444Z,11.03
2023-12-09T18:07:29.630Z,11.17
2023-12-09T18:12:31.645Z,9.43
2023-12-09T18:17:34.108Z,10.77
2023-12-09T18:22:35.848Z,12.00
2023-12-09T18:27:38.111Z,11.47
2023-12-09T18:32:40.128Z,10.97
2023-12-09T18:37:42.104Z,11.40
2023-12-09T18:42:43.862Z,9.97
2023-12-09T18:47:45.720Z,10.73
2023-12-09T18:52:47.398Z,12.30
2023-12-09T18:57:49.173Z,11.93
2023-12-09T19:02:50.896Z,11.70
2023-12-09T19:07:52.633Z,10.53
2023-12-09T19:12:54.404Z,10.20
2023-12-09T19:17:56.193Z,10.07
2023-12-09T19:23:00.057Z,10.07
2023-12-09T19:28:04.476Z,9.73
2023-12-09T19:33:06.425Z,9.00
2023-12-09T19:38:08.134Z,9.18
2023-12-09T19:43:09.792Z,9.70
2023-12-09T19:48:11.594Z,9.67
2023-12-09T19:53:13.331Z,10.97
2023-12-09T19:58:15.033Z,11.70
2023-12-09T20:03:16.805Z,11.45
2023-12-09T20:08:18.588Z,11.33
2023-12-09T20:13:20.680Z,10.88
2023-12-09T20:18:22.469Z,11.55
2023-12-09T20:23:24.183Z,11.40
2023-12-09T20:28:26.501Z,11.17
2023-12-09T20:33:28.887Z,11.37
2023-12-09T20:38:33.780Z,10.90
2023-12-09T20:43:36.568Z,10.87
2023-12-09T20:48:38.305Z,10.30
2023-12-09T20:53:40.064Z,12.23
2023-12-09T20:58:41.719Z,12.13
2023-12-09T21:03:44.108Z,12.03
2023-12-09T21:08:45.818Z,11.07
2023-12-09T21:13:47.657Z,12.10
2023-12-09T21:18:49.501Z,10.50
2023-12-09T21:23:51.276Z,11.70
2023-12-09T21:28:53.078Z,11.57
2023-12-09T21:33:54.856Z,12.30
2023-12-09T21:38:56.724Z,12.90
2023-12-09T21:43:58.503Z,11.10
2023-12-09T21:49:00.770Z,11.63
2023-12-09T21:54:02.593Z,10.13
2023-12-09T21:59:04.315Z,9.40
2023-12-09T22:04:06.664Z,8.50
2023-12-09T22:09:08.396Z,7.97
2023-12-09T22:14:10.145Z,8.43
2023-12-09T22:19:11.903Z,8.10
2023-12-09T22:24:13.688Z,8.37
2023-12-09T22:29:15.399Z,8.13
2023-12-09T22:34:17.123Z,7.83
2023-12-09T22:39:19.056Z,7.70
2023-12-09T22:44:20.932Z,8.53
2023-12-09T22:49:22.710Z,8.60
2023-12-09T22:54:24.496Z,8.43
2023-12-09T22:59:26.169Z,7.27
2023-12-09T23:04:27.904Z,10.07
2023-12-09T23:09:30.333Z,8.87
2023-12-09T23:14:32.085Z,6.77
2023-12-09T23:19:33.797Z,7.00
2023-12-09T23:24:35.501Z,8.57
2023-12-09T23:29:37.158Z,8.33
2023-12-09T23:34:38.913Z,7.40
2023-12-09T23:39:40.681Z,7.32
2023-12-09T23:44:42.370Z,7.50
2023-12-09T23:49:44.063Z,6.97
2023-12-09T23:54:45.760Z,7.07
2023-12-09T23:59:47.664Z,5.93
